Time;durP1;ratioP1;P1;durP2;ratioP2;P2;SDS_P1;SDS_P2;PMS_P1;PMS_P2;Temp;Humidity;BMP_temperature;BMP_pressure;BME280_temperature;BME280_humidity;BME280_pressure;Samples;Min_cycle;Max_cycle;Signal;HPM_P1;HPM_P2
2021/01/10 00:00:52;;;;;;;18.73;9.88;;;-0.70;94.80;;;;;;5125746;27;27402;-48
2021/01/10 00:03:36;;;;;;;16.23;9.43;;;-0.80;94.40;;;;;;5126113;27;27332;-51
2021/01/10 00:06:21;;;;;;;19.30;9.75;;;-0.80;94.60;;;;;;5125761;27;27371;-51
2021/01/10 00:09:05;;;;;;;19.08;9.85;;;-0.80;94.60;;;;;;5125992;27;27373;-48
2021/01/10 00:11:50;;;;;;;19.75;10.05;;;-0.90;94.60;;;;;;5125182;27;27403;-49
2021/01/10 00:14:35;;;;;;;17.05;9.48;;;-0.90;94.50;;;;;;5125984;27;27400;-49
2021/01/10 00:17:19;;;;;;;18.63;9.98;;;-0.90;94.50;;;;;;5125206;27;27380;-53
2021/01/10 00:20:08;;;;;;;16.20;10.30;;;-1.00;94.60;;;;;;5125574;27;27899;-51
2021/01/10 00:22:53;;;;;;;16.63;9.05;;;-1.00;94.50;;;;;;5125817;27;27330;-52
2021/01/10 00:25:37;;;;;;;20.63;10.48;;;-1.00;94.70;;;;;;5125561;27;27432;-53
2021/01/10 00:28:22;;;;;;;15.65;8.82;;;-1.10;94.60;;;;;;5125484;27;27324;-49
2021/01/10 00:31:06;;;;;;;15.98;9.23;;;-1.10;94.60;;;;;;5125671;27;27867;-48
2021/01/10 00:33:51;;;;;;;20.20;9.75;;;-1.10;94.70;;;;;;5125386;27;27381;-48
2021/01/10 00:36:36;;;;;;;16.88;9.55;;;-1.10;94.90;;;;;;5125028;27;27413;-50
2021/01/10 00:39:21;;;;;;;20.83;10.45;;;-1.00;95.10;;;;;;5125658;27;27390;-51
2021/01/10 00:42:09;;;;;;;20.27;10.57;;;-1.10;95.20;;;;;;5125287;27;27404;-50
2021/01/10 00:44:54;;;;;;;18.63;10.02;;;-1.00;95.30;;;;;;5125022;27;27418;-51
2021/01/10 00:47:39;;;;;;;16.15;9.63;;;-1.00;95.30;;;;;;5121157;27;27409;-51
2021/01/10 00:50:24;;;;;;;17.33;8.95;;;-1.00;95.40;;;;;;5125179;27;27504;-46
2021/01/10 00:53:08;;;;;;;16.38;9.05;;;-1.00;95.50;;;;;;5125347;27;27334;-50
2021/01/10 00:55:56;;;;;;;20.00;11.07;;;-0.90;95.50;;;;;;5125020;27;27487;-49
2021/01/10 00:58:41;;;;;;;15.73;9.38;;;-0.90;95.60;;;;;;5121035;27;27492;-47
2021/01/10 01:01:26;;;;;;;17.23;9.95;;;-0.90;95.70;;;;;;5121953;27;27398;-50
2021/01/10 01:04:10;;;;;;;17.48;9.93;;;-0.90;95.70;;;;;;5124830;27;27445;-51
2021/01/10 01:06:56;;;;;;;17.50;10.02;;;-0.90;95.70;;;;;;5120850;27;27526;-50
2021/01/10 01:09:41;;;;;;;18.67;10.13;;;-0.80;95.80;;;;;;5124999;27;27519;-49
2021/01/10 01:12:26;;;;;;;17.83;9.70;;;-0.80;95.90;;;;;;5125446;27;27461;-48
2021/01/10 01:15:11;;;;;;;15.30;9.48;;;-0.80;95.90;;;;;;5128043;27;27464;-49
2021/01/10 01:17:56;;;;;;;16.77;10.23;;;-0.80;95.90;;;;;;5128751;27;27423;-49
2021/01/10 01:20:40;;;;;;;18.17;10.05;;;-0.70;95.90;;;;;;5128786;27;27456;-49
2021/01/10 01:23:25;;;;;;;17.98;9.55;;;-0.70;95.90;;;;;;5128456;27;27418;-50
2021/01/10 01:26:19;;;;;;;21.50;11.35;;;-0.70;96.00;;;;;;5124039;27;27520;-49
2021/01/10 01:29:03;;;;;;;20.40;10.38;;;-0.60;96.00;;;;;;5128295;27;27319;-50
2021/01/10 01:31:48;;;;;;;17.77;9.45;;;-0.60;96.00;;;;;;5128360;27;27409;-51
2021/01/10 01:34:32;;;;;;;17.45;9.48;;;-0.60;96.10;;;;;;5124245;27;27400;-53
2021/01/10 01:37:17;;;;;;;15.95;9.25;;;-0.60;96.10;;;;;;5127790;27;27624;-51
2021/01/10 01:40:03;;;;;;;18.05;10.60;;;-0.60;96.10;;;;;;5128199;27;27337;-50
2021/01/10 01:42:48;;;;;;;17.80;9.30;;;-0.50;96.00;;;;;;5128509;27;27337;-49
2021/01/10 01:45:33;;;;;;;15.82;9.27;;;-0.50;96.00;;;;;;5128128;27;27388;-50
2021/01/10 01:48:17;;;;;;;18.58;10.73;;;-0.50;96.00;;;;;;5128352;27;27315;-48
2021/01/10 01:51:02;;;;;;;16.95;9.90;;;-0.50;96.00;;;;;;5128233;27;27382;-48
2021/01/10 01:53:47;;;;;;;17.77;9.18;;;-0.40;96.00;;;;;;5128375;27;27401;-49
2021/01/10 01:56:32;;;;;;;15.82;8.48;;;-0.40;96.00;;;;;;5127925;27;27327;-45
2021/01/10 01:59:17;;;;;;;14.68;8.80;;;-0.40;96.00;;;;;;5127089;27;27864;-48
2021/01/10 02:02:05;;;;;;;17.75;10.27;;;-0.40;96.00;;;;;;5127835;27;27416;-48
2021/01/10 02:05:07;;;;;;;16.95;9.63;;;-0.40;96.00;;;;;;5127900;27;27422;-46
2021/01/10 02:08:05;;;;;;;18.00;9.23;;;-0.40;96.00;;;;;;5128024;27;27381;-48
2021/01/10 02:10:49;;;;;;;19.55;9.90;;;-0.40;95.90;;;;;;5127896;27;28034;-47
2021/01/10 02:13:34;;;;;;;17.15;10.02;;;-0.30;95.90;;;;;;5127128;27;27449;-48
2021/01/10 02:16:19;;;;;;;16.63;9.82;;;-0.40;95.90;;;;;;5126880;27;27501;-48
2021/01/10 02:19:05;;;;;;;16.90;9.60;;;-0.30;95.90;;;;;;5126789;27;27345;-49
2021/01/10 02:21:51;;;;;;;18.77;9.52;;;-0.30;95.90;;;;;;5126689;27;27484;-48
2021/01/10 02:24:36;;;;;;;16.13;9.07;;;-0.30;95.90;;;;;;5125206;27;27439;-48
2021/01/10 02:27:21;;;;;;;14.90;8.88;;;-0.30;95.90;;;;;;5127402;27;27612;-48
2021/01/10 02:30:07;;;;;;;18.83;10.00;;;-0.30;95.90;;;;;;5126678;27;27412;-49
2021/01/10 02:32:53;;;;;;;15.55;8.18;;;-0.30;95.90;;;;;;5126527;27;27426;-47
2021/01/10 02:35:40;;;;;;;16.08;9.55;;;-0.30;95.90;;;;;;5126768;27;27452;-47
2021/01/10 02:38:46;;;;;;;17.45;9.27;;;-0.30;95.90;;;;;;5126873;27;27586;-48
2021/01/10 02:41:35;;;;;;;14.98;9.07;;;-0.30;95.90;;;;;;5127602;27;27393;-48
2021/01/10 02:44:22;;;;;;;15.07;9.32;;;-0.30;95.90;;;;;;5126530;27;27503;-49
2021/01/10 02:47:07;;;;;;;16.45;9.57;;;-0.30;95.90;;;;;;5126580;27;27441;-48
2021/01/10 02:49:52;;;;;;;16.80;8.68;;;-0.30;96.20;;;;;;5127081;27;27491;-48
2021/01/10 02:52:36;;;;;;;15.48;9.27;;;-0.30;95.80;;;;;;5127319;27;27464;-47
2021/01/10 02:55:21;;;;;;;14.75;8.55;;;-0.30;95.80;;;;;;5126405;27;27433;-49
2021/01/10 02:58:19;;;;;;;14.27;9.45;;;-0.20;95.80;;;;;;5127198;27;27449;-48
2021/01/10 03:01:04;;;;;;;18.38;9.27;;;-0.30;95.80;;;;;;5126488;27;27394;-49
2021/01/10 03:03:48;;;;;;;15.93;9.73;;;-0.20;95.80;;;;;;5111694;27;27348;-49
2021/01/10 03:06:33;;;;;;;14.63;8.55;;;-0.20;95.70;;;;;;5127044;27;27460;-48
2021/01/10 03:09:18;;;;;;;16.25;8.65;;;-0.20;95.50;;;;;;5126215;27;27473;-49
2021/01/10 03:12:25;;;;;;;14.43;9.00;;;-0.30;95.50;;;;;;5126218;27;27438;-49
2021/01/10 03:15:10;;;;;;;17.00;9.00;;;-0.30;95.50;;;;;;5122930;27;27399;-49
2021/01/10 03:17:55;;;;;;;16.02;8.73;;;-0.30;95.40;;;;;;5126159;27;27407;-48
2021/01/10 03:20:39;;;;;;;15.13;8.98;;;-0.30;95.30;;;;;;5126288;27;27591;-49
2021/01/10 03:23:24;;;;;;;18.45;9.45;;;-0.30;95.30;;;;;;5126581;27;27370;-48
2021/01/10 03:26:08;;;;;;;17.75;9.02;;;-0.40;95.30;;;;;;5126150;27;27426;-49
2021/01/10 03:28:53;;;;;;;14.23;8.30;;;-0.40;95.30;;;;;;5122371;27;27961;-49
2021/01/10 03:31:37;;;;;;;16.92;9.52;;;-0.40;95.40;;;;;;5126385;27;27500;-48
2021/01/10 03:34:22;;;;;;;17.08;9.50;;;-0.40;95.40;;;;;;5126388;27;27450;-48
2021/01/10 03:37:06;;;;;;;16.13;9.55;;;-0.40;95.40;;;;;;5125590;27;27461;-48
2021/01/10 03:39:51;;;;;;;14.85;9.55;;;-0.40;95.30;;;;;;5126257;27;27478;-49
2021/01/10 03:42:35;;;;;;;18.75;10.30;;;-0.50;95.30;;;;;;5122415;27;27476;-48
2021/01/10 03:45:20;;;;;;;15.45;8.68;;;-0.50;95.10;;;;;;5107481;27;27472;-52
2021/01/10 03:48:06;;;;;;;16.02;8.88;;;-0.50;95.30;;;;;;5124945;27;27422;-48
2021/01/10 03:50:50;;;;;;;16.02;9.13;;;-0.50;95.30;;;;;;5125325;27;27899;-47
2021/01/10 03:53:34;;;;;;;17.85;9.43;;;-0.50;95.10;;;;;;5126016;27;27406;-49
2021/01/10 03:56:19;;;;;;;13.25;8.57;;;-0.60;95.10;;;;;;5126322;27;27461;-50
2021/01/10 03:59:03;;;;;;;13.80;8.02;;;-0.60;95.10;;;;;;5126291;27;27362;-50
2021/01/10 04:01:48;;;;;;;17.27;9.10;;;-0.60;95.10;;;;;;5122846;27;27331;-49
2021/01/10 04:04:32;;;;;;;15.68;9.15;;;-0.70;95.00;;;;;;5126060;27;27387;-51
2021/01/10 04:07:17;;;;;;;17.75;9.10;;;-0.70;94.90;;;;;;5122089;27;27345;-48
2021/01/10 04:10:01;;;;;;;15.45;8.25;;;-0.70;94.90;;;;;;5126062;27;27332;-52
2021/01/10 04:12:46;;;;;;;17.15;9.23;;;-0.70;95.00;;;;;;5125654;27;27406;-48
2021/01/10 04:15:30;;;;;;;19.20;9.40;;;-0.70;95.00;;;;;;5125225;27;27379;-49
2021/01/10 04:18:15;;;;;;;15.23;9.13;;;-0.80;95.50;;;;;;5122390;27;27388;-48
2021/01/10 04:21:02;;;;;;;20.40;10.07;;;-0.80;95.10;;;;;;5122590;27;27308;-50
2021/01/10 04:23:46;;;;;;;14.88;8.85;;;-0.80;95.00;;;;;;5125589;27;27338;-49
2021/01/10 04:26:36;;;;;;;15.18;8.75;;;-0.80;95.20;;;;;;5124763;27;27421;-50
2021/01/10 04:29:21;;;;;;;15.70;9.65;;;-0.90;95.00;;;;;;5125867;27;27474;-47
2021/01/10 04:32:05;;;;;;;15.02;9.02;;;-0.80;95.20;;;;;;5125468;27;27401;-48
2021/01/10 04:34:50;;;;;;;14.63;8.60;;;-0.90;95.30;;;;;;5125362;27;27414;-50
2021/01/10 04:37:34;;;;;;;18.20;8.70;;;-0.90;95.30;;;;;;5125037;27;27508;-49
2021/01/10 04:40:20;;;;;;;19.20;9.18;;;-0.90;95.30;;;;;;5125693;27;27509;-52
2021/01/10 04:43:04;;;;;;;14.82;9.27;;;-0.90;95.40;;;;;;5124866;27;27452;-48
2021/01/10 04:45:49;;;;;;;16.80;9.07;;;-0.90;95.40;;;;;;5121129;27;27461;-50
2021/01/10 04:48:33;;;;;;;15.52;8.57;;;-0.80;95.50;;;;;;5124527;27;27407;-50
2021/01/10 04:51:18;;;;;;;17.65;9.10;;;-0.80;95.60;;;;;;5124504;27;27465;-49
2021/01/10 04:54:02;;;;;;;15.82;9.43;;;-0.80;95.70;;;;;;5124446;27;27414;-50
2021/01/10 04:56:47;;;;;;;20.08;9.45;;;-0.80;95.70;;;;;;5125367;27;27933;-54
2021/01/10 04:59:31;;;;;;;15.32;9.15;;;-0.80;95.70;;;;;;5124280;27;27409;-49
2021/01/10 05:02:15;;;;;;;16.80;9.80;;;-0.80;95.70;;;;;;5110130;27;27382;-50
2021/01/10 05:05:00;;;;;;;14.32;8.07;;;-0.70;95.80;;;;;;5109921;27;27408;-47
2021/01/10 05:07:45;;;;;;;13.45;8.45;;;-0.70;95.80;;;;;;5123851;27;27457;-50
2021/01/10 05:10:30;;;;;;;16.52;9.02;;;-0.70;95.80;;;;;;5124398;27;27392;-52
2021/01/10 05:13:15;;;;;;;17.05;8.60;;;-0.70;95.80;;;;;;5125206;27;27381;-48
2021/01/10 05:16:00;;;;;;;14.65;9.23;;;-0.70;95.80;;;;;;5124819;27;27405;-53
2021/01/10 05:18:51;;;;;;;14.68;7.90;;;-0.70;95.80;;;;;;5124982;27;27414;-50
2021/01/10 05:21:39;;;;;;;14.02;8.02;;;-0.70;95.80;;;;;;5124748;27;27470;-52
2021/01/10 05:24:24;;;;;;;15.02;9.07;;;-0.60;95.80;;;;;;5124698;27;27358;-53
2021/01/10 05:27:09;;;;;;;14.35;8.23;;;-0.60;95.80;;;;;;5125014;27;27423;-51
2021/01/10 05:29:54;;;;;;;12.32;7.30;;;-0.60;95.80;;;;;;5124942;27;27465;-50
2021/01/10 05:32:38;;;;;;;14.55;8.63;;;-0.60;95.80;;;;;;5121536;27;27524;-49
2021/01/10 05:35:22;;;;;;;14.30;8.40;;;-0.60;95.90;;;;;;5123716;27;27466;-50
2021/01/10 05:38:07;;;;;;;14.00;8.32;;;-0.60;95.80;;;;;;5123193;27;27589;-47
2021/01/10 05:40:56;;;;;;;14.27;8.30;;;-0.60;95.80;;;;;;5124488;27;27969;-49
2021/01/10 05:43:56;;;;;;;12.27;7.18;;;-0.60;95.80;;;;;;5124518;27;27345;-48
2021/01/10 05:46:41;;;;;;;12.77;6.95;;;-0.60;95.80;;;;;;5124800;27;27535;-48
2021/01/10 05:49:25;;;;;;;14.18;7.68;;;-0.60;95.80;;;;;;5123707;27;27411;-49
2021/01/10 05:52:10;;;;;;;16.20;8.77;;;-0.60;95.80;;;;;;5109406;27;27430;-48
2021/01/10 05:54:55;;;;;;;14.65;7.72;;;-0.60;95.80;;;;;;5124307;27;27492;-48
2021/01/10 05:57:40;;;;;;;14.85;8.45;;;-0.50;95.80;;;;;;5124437;27;26921;-45
2021/01/10 06:00:32;;;;;;;11.43;7.13;;;-0.50;95.80;;;;;;5127254;27;27409;-48
2021/01/10 06:03:17;;;;;;;11.30;7.05;;;-0.50;95.80;;;;;;5127620;27;27638;-48
2021/01/10 06:06:06;;;;;;;12.05;7.63;;;-0.60;95.80;;;;;;5126992;27;27410;-48
2021/01/10 06:08:51;;;;;;;13.15;7.95;;;-0.50;95.80;;;;;;5128041;27;27414;-48
2021/01/10 06:11:35;;;;;;;12.75;7.65;;;-0.50;95.90;;;;;;5112782;27;26863;-47
2021/01/10 06:14:24;;;;;;;12.23;7.05;;;-0.50;95.80;;;;;;5112438;27;28011;-47
2021/01/10 06:17:08;;;;;;;11.38;7.43;;;-0.50;95.80;;;;;;5127797;27;27407;-48
2021/01/10 06:19:53;;;;;;;12.15;6.93;;;-0.50;95.80;;;;;;5112665;27;27452;-48
2021/01/10 06:22:37;;;;;;;17.10;7.25;;;-0.50;95.80;;;;;;5112600;27;27461;-48
2021/01/10 06:25:26;;;;;;;11.65;7.10;;;-0.50;95.80;;;;;;5127558;27;27907;-49
2021/01/10 06:28:15;;;;;;;12.63;7.30;;;-0.50;95.80;;;;;;5126627;27;27576;-49
2021/01/10 06:31:00;;;;;;;8.63;5.82;;;-0.50;95.80;;;;;;5127472;27;27418;-48
2021/01/10 06:33:45;;;;;;;11.80;6.82;;;-0.50;95.70;;;;;;5126592;27;27474;-50
2021/01/10 06:36:31;;;;;;;12.63;7.45;;;-0.50;95.70;;;;;;5127564;27;27480;-49
2021/01/10 06:39:18;;;;;;;11.07;6.35;;;-0.50;95.70;;;;;;5127550;27;27420;-48
2021/01/10 06:42:11;;;;;;;10.77;6.50;;;-0.50;95.70;;;;;;5127539;27;27421;-47
2021/01/10 06:44:56;;;;;;;10.70;6.85;;;-0.50;95.50;;;;;;5127082;27;27414;-49
2021/01/10 06:47:40;;;;;;;11.00;6.90;;;-0.50;95.50;;;;;;5111851;27;27461;-49
2021/01/10 06:50:24;;;;;;;12.88;6.63;;;-0.50;95.70;;;;;;5127319;27;27418;-48
2021/01/10 06:53:09;;;;;;;10.18;6.32;;;-0.60;95.60;;;;;;5126622;27;27360;-49
2021/01/10 06:55:54;;;;;;;11.68;6.60;;;-0.50;95.60;;;;;;5127045;27;27357;-48
2021/01/10 06:58:49;;;;;;;11.23;7.22;;;-0.60;95.40;;;;;;5123125;27;27327;-49
2021/01/10 07:01:45;;;;;;;11.15;6.78;;;-0.50;95.60;;;;;;5113380;27;27379;-51
2021/01/10 07:04:33;;;;;;;12.98;6.93;;;-0.50;95.60;;;;;;5127131;27;27485;-49
2021/01/10 07:07:37;;;;;;;11.15;6.70;;;-0.50;95.70;;;;;;5127084;27;27479;-48
2021/01/10 07:10:25;;;;;;;11.52;6.82;;;-0.60;95.60;;;;;;5126224;27;27418;-48
2021/01/10 07:13:27;;;;;;;10.68;6.95;;;-0.60;95.60;;;;;;5126751;27;27431;-48
2021/01/10 07:16:22;;;;;;;11.02;6.38;;;-0.50;95.70;;;;;;5127056;27;27508;-48
2021/01/10 07:19:07;;;;;;;9.77;6.10;;;-0.50;95.70;;;;;;5126656;27;27466;-48
2021/01/10 07:21:52;;;;;;;10.82;6.63;;;-0.50;96.10;;;;;;5126571;27;27423;-48
2021/01/10 07:24:36;;;;;;;10.32;6.30;;;-0.50;95.70;;;;;;5126402;27;27647;-48
2021/01/10 07:27:34;;;;;;;10.43;6.13;;;-0.60;95.60;;;;;;5126855;27;27566;-49
2021/01/10 07:30:23;;;;;;;8.88;5.55;;;-0.50;95.60;;;;;;5126704;27;27467;-50
2021/01/10 07:33:23;;;;;;;9.10;5.82;;;-0.50;95.70;;;;;;5126414;27;27355;-48
2021/01/10 07:36:09;;;;;;;10.07;6.13;;;-0.50;95.60;;;;;;5126625;27;27475;-52
2021/01/10 07:38:53;;;;;;;10.38;6.07;;;-0.50;95.50;;;;;;5125592;27;27477;-49
2021/01/10 07:41:38;;;;;;;10.73;6.20;;;-0.50;95.40;;;;;;5126298;27;27418;-49
2021/01/10 07:44:48;;;;;;;11.43;6.60;;;-0.50;95.40;;;;;;5126059;27;27460;-49
2021/01/10 07:47:35;;;;;;;9.80;5.70;;;-0.50;95.40;;;;;;5125712;27;27397;-50
2021/01/10 07:50:24;;;;;;;9.43;6.07;;;-0.50;95.30;;;;;;5126176;27;27475;-49
2021/01/10 07:53:08;;;;;;;8.15;5.13;;;-0.40;95.30;;;;;;5125867;27;27461;-48
2021/01/10 07:55:53;;;;;;;9.85;5.35;;;-0.40;95.30;;;;;;5125955;27;27485;-50
2021/01/10 07:58:37;;;;;;;9.68;5.75;;;-0.40;95.20;;;;;;5110736;27;27474;-50
2021/01/10 08:01:22;;;;;;;10.98;6.15;;;-0.40;95.10;;;;;;5126239;27;27422;-48
2021/01/10 08:04:09;;;;;;;8.30;5.25;;;-0.30;95.10;;;;;;5125804;27;27437;-48
2021/01/10 08:06:57;;;;;;;11.18;6.00;;;-0.30;95.10;;;;;;5125858;27;27476;-50
2021/01/10 08:09:42;;;;;;;9.77;5.55;;;-0.30;95.10;;;;;;5126103;27;27426;-50
2021/01/10 08:12:32;;;;;;;8.98;5.78;;;-0.30;95.20;;;;;;5125094;27;27335;-48
2021/01/10 08:15:17;;;;;;;11.95;5.70;;;-0.20;95.10;;;;;;5125756;27;27424;-50
2021/01/10 08:18:02;;;;;;;9.38;5.43;;;-0.10;95.10;;;;;;5125925;27;27464;-48
2021/01/10 08:20:50;;;;;;;10.43;6.32;;;-0.10;95.10;;;;;;5125448;27;27406;-52
2021/01/10 08:23:36;;;;;;;7.47;4.63;;;0.00;95.10;;;;;;5125688;27;27457;-49
2021/01/10 08:26:20;;;;;;;8.15;5.18;;;0.00;95.00;;;;;;5125526;27;27376;-53
2021/01/10 08:29:08;;;;;;;7.82;4.75;;;0.10;95.00;;;;;;5125406;27;27356;-52
2021/01/10 08:31:52;;;;;;;9.07;5.88;;;0.10;94.90;;;;;;5125004;27;27523;-49
2021/01/10 08:34:47;;;;;;;9.13;5.78;;;0.20;94.80;;;;;;5110541;27;27421;-51
2021/01/10 08:37:31;;;;;;;8.27;5.05;;;0.30;94.70;;;;;;5124982;27;27355;-52
2021/01/10 08:40:16;;;;;;;8.95;5.28;;;0.40;94.60;;;;;;5125313;27;27998;-51
2021/01/10 08:43:02;;;;;;;8.15;4.80;;;0.40;94.40;;;;;;5125553;27;27331;-48
2021/01/10 08:45:47;;;;;;;9.75;5.13;;;0.50;94.30;;;;;;5125094;27;27396;-48
2021/01/10 08:48:32;;;;;;;11.80;4.93;;;0.50;94.20;;;;;;5125210;27;27339;-45
2021/01/10 08:51:36;;;;;;;9.05;5.50;;;0.60;94.10;;;;;;5125073;27;27386;-49
2021/01/10 08:54:23;;;;;;;8.50;5.72;;;0.70;94.00;;;;;;5125084;27;27421;-48
2021/01/10 08:57:07;;;;;;;8.50;5.18;;;0.80;93.90;;;;;;5124362;27;27339;-52
2021/01/10 08:59:52;;;;;;;7.95;5.15;;;0.80;93.60;;;;;;5092585;27;27434;-48
2021/01/10 09:02:37;;;;;;;7.43;4.70;;;0.90;93.40;;;;;;5121224;27;28038;-47
2021/01/10 09:05:27;;;;;;;6.75;4.63;;;1.00;93.30;;;;;;5124789;27;27315;-49
2021/01/10 09:08:27;;;;;;;8.35;5.35;;;1.00;93.20;;;;;;5125363;27;27430;-50
2021/01/10 09:11:13;;;;;;;9.25;5.05;;;1.10;93.10;;;;;;5125234;27;27439;-50
2021/01/10 09:13:59;;;;;;;8.27;5.32;;;1.10;93.00;;;;;;5125138;27;27891;-49
2021/01/10 09:16:43;;;;;;;8.85;5.97;;;1.20;92.80;;;;;;5124588;27;27381;-50
2021/01/10 09:19:28;;;;;;;9.25;5.65;;;1.20;92.80;;;;;;5109632;27;27411;-47
2021/01/10 09:22:13;;;;;;;9.10;5.85;;;1.20;92.70;;;;;;5125071;27;27367;-50
2021/01/10 09:24:57;;;;;;;7.65;4.97;;;1.30;92.60;;;;;;5109407;27;27343;-49
2021/01/10 09:28:09;;;;;;;9.15;5.43;;;1.30;92.50;;;;;;5125037;27;27423;-49
2021/01/10 09:30:54;;;;;;;8.07;5.38;;;1.40;92.40;;;;;;5124345;27;27429;-51
2021/01/10 09:33:39;;;;;;;7.20;4.82;;;1.50;92.30;;;;;;5125468;27;27524;-52
2021/01/10 09:36:24;;;;;;;8.48;5.75;;;1.50;92.20;;;;;;5127487;27;27484;-53
2021/01/10 09:39:08;;;;;;;9.77;5.63;;;1.60;92.10;;;;;;5112464;27;27465;-51
2021/01/10 09:41:54;;;;;;;7.65;5.22;;;1.60;92.00;;;;;;5128546;27;27460;-50
2021/01/10 09:44:39;;;;;;;8.82;5.65;;;1.70;91.80;;;;;;5124798;27;27383;-49
2021/01/10 09:47:36;;;;;;;8.00;5.78;;;1.70;91.70;;;;;;5128431;27;27938;-50
2021/01/10 09:50:20;;;;;;;7.88;5.05;;;1.80;91.80;;;;;;5128461;27;27332;-50
2021/01/10 09:53:05;;;;;;;9.45;5.72;;;1.80;91.70;;;;;;5128188;27;27460;-50
2021/01/10 09:55:49;;;;;;;8.98;5.95;;;1.80;91.90;;;;;;5127303;27;27475;-50
2021/01/10 09:58:34;;;;;;;9.63;4.97;;;1.90;91.70;;;;;;5128074;27;28054;-52
2021/01/10 10:01:18;;;;;;;7.68;4.75;;;1.90;91.60;;;;;;5128243;27;27491;-50
2021/01/10 10:04:03;;;;;;;8.82;6.10;;;2.00;91.60;;;;;;5127228;27;27406;-52
2021/01/10 10:06:52;;;;;;;8.85;5.97;;;2.00;91.50;;;;;;5127897;27;27420;-51
2021/01/10 10:09:53;;;;;;;9.00;5.05;;;2.10;91.40;;;;;;5127766;27;27339;-49
2021/01/10 10:12:37;;;;;;;8.80;5.43;;;2.10;91.20;;;;;;5124730;27;27467;-50
2021/01/10 10:15:23;;;;;;;7.05;4.90;;;2.20;91.10;;;;;;5128143;27;27445;-49
2021/01/10 10:18:09;;;;;;;8.50;6.10;;;2.30;91.10;;;;;;5123920;27;27479;-48
2021/01/10 10:20:53;;;;;;;7.47;5.13;;;2.50;91.30;;;;;;5127626;27;27484;-49
2021/01/10 10:23:41;;;;;;;8.52;5.05;;;2.60;91.10;;;;;;5123820;27;27464;-47
2021/01/10 10:26:26;;;;;;;8.30;5.50;;;2.80;90.90;;;;;;5127698;27;27407;-50
2021/01/10 10:29:10;;;;;;;8.35;6.07;;;2.90;90.70;;;;;;5127816;27;27389;-50
2021/01/10 10:31:55;;;;;;;7.70;5.13;;;3.10;90.70;;;;;;5124100;27;27445;-50
2021/01/10 10:34:39;;;;;;;10.02;5.72;;;3.30;90.50;;;;;;5127663;27;27469;-49
2021/01/10 10:37:24;;;;;;;9.63;5.25;;;3.40;90.30;;;;;;5126395;27;27453;-48
2021/01/10 10:40:09;;;;;;;9.98;5.30;;;3.50;90.10;;;;;;5127355;27;27402;-49
2021/01/10 10:42:54;;;;;;;7.43;5.20;;;3.70;89.60;;;;;;5127484;27;27432;-50
2021/01/10 10:45:38;;;;;;;11.60;6.00;;;3.90;89.50;;;;;;5126088;27;27433;-50
2021/01/10 10:48:23;;;;;;;7.88;5.22;;;4.00;89.00;;;;;;5127505;27;27460;-49
2021/01/10 10:51:07;;;;;;;7.32;4.90;;;4.20;88.80;;;;;;5127469;27;27460;-46
2021/01/10 10:53:52;;;;;;;7.93;5.18;;;4.30;88.40;;;;;;5127141;27;27917;-49
2021/01/10 10:56:37;;;;;;;6.15;4.47;;;4.40;87.60;;;;;;5127073;27;27487;-49
2021/01/10 10:59:21;;;;;;;7.20;5.50;;;4.50;87.60;;;;;;5127197;27;27406;-52
2021/01/10 11:02:09;;;;;;;7.63;4.82;;;4.70;87.10;;;;;;5127191;27;27456;-47
2021/01/10 11:04:55;;;;;;;7.75;5.18;;;4.90;87.10;;;;;;5127153;27;27855;-50
2021/01/10 11:07:39;;;;;;;7.35;5.20;;;5.00;86.50;;;;;;5123156;27;27449;-49
2021/01/10 11:10:24;;;;;;;7.70;5.40;;;5.10;85.90;;;;;;5127243;27;27418;-49
2021/01/10 11:13:08;;;;;;;7.03;4.85;;;5.20;85.40;;;;;;5126774;27;27409;-50
2021/01/10 11:15:53;;;;;;;6.72;5.03;;;5.30;85.30;;;;;;5123442;27;27399;-50
2021/01/10 11:18:38;;;;;;;7.25;4.97;;;5.30;85.00;;;;;;5126980;27;27415;-48
2021/01/10 11:21:27;;;;;;;7.47;5.30;;;5.30;85.20;;;;;;5127011;27;27512;-49
2021/01/10 11:24:12;;;;;;;8.93;5.07;;;5.30;85.10;;;;;;5126918;27;27318;-50
2021/01/10 11:26:57;;;;;;;9.13;4.63;;;5.30;84.60;;;;;;5126544;27;27445;-49
2021/01/10 11:29:42;;;;;;;7.30;5.15;;;5.30;84.20;;;;;;5126740;27;27429;-48
2021/01/10 11:32:26;;;;;;;7.35;4.90;;;5.30;84.30;;;;;;5126566;27;27620;-49
2021/01/10 11:35:11;;;;;;;8.38;5.75;;;5.30;83.90;;;;;;5126654;27;27368;-51
2021/01/10 11:37:56;;;;;;;8.45;5.07;;;5.20;84.40;;;;;;5124444;27;27356;-49
2021/01/10 11:40:40;;;;;;;6.82;5.10;;;5.20;85.00;;;;;;5126379;27;27390;-50
2021/01/10 11:43:27;;;;;;;7.75;5.25;;;5.10;84.30;;;;;;5126748;27;27385;-52
2021/01/10 11:46:11;;;;;;;7.03;5.18;;;5.00;84.50;;;;;;5126258;27;27401;-51
2021/01/10 11:48:56;;;;;;;6.57;4.72;;;5.00;84.90;;;;;;5126060;27;27872;-46
2021/01/10 11:51:40;;;;;;;6.95;5.00;;;5.00;85.40;;;;;;5126506;27;27371;-53
2021/01/10 11:54:28;;;;;;;6.03;4.53;;;4.90;85.70;;;;;;5126197;27;27408;-47
2021/01/10 11:57:12;;;;;;;6.43;4.63;;;4.90;85.70;;;;;;5126052;27;27385;-53
2021/01/10 11:59:57;;;;;;;6.18;4.50;;;4.80;85.40;;;;;;5126009;27;27383;-50
2021/01/10 12:02:41;;;;;;;8.60;5.35;;;4.80;85.20;;;;;;5122942;27;27381;-51
2021/01/10 12:05:25;;;;;;;6.72;4.45;;;4.80;85.30;;;;;;5126143;27;27310;-50
2021/01/10 12:08:10;;;;;;;7.25;4.50;;;4.70;85.50;;;;;;5126163;27;27320;-50
2021/01/10 12:10:55;;;;;;;7.00;4.32;;;4.80;85.70;;;;;;5125875;27;27382;-52
2021/01/10 12:13:40;;;;;;;6.28;4.68;;;4.80;85.70;;;;;;5125785;27;27412;-53
2021/01/10 12:16:25;;;;;;;6.50;4.47;;;4.80;85.70;;;;;;5125930;27;27456;-51
2021/01/10 12:19:09;;;;;;;6.55;4.68;;;4.80;85.80;;;;;;5122671;27;27465;-50
2021/01/10 12:21:54;;;;;;;7.78;5.35;;;4.90;85.70;;;;;;5125535;27;27449;-54
2021/01/10 12:24:38;;;;;;;6.32;4.40;;;4.90;85.10;;;;;;5125437;27;27481;-49
2021/01/10 12:27:23;;;;;;;6.18;4.72;;;5.00;85.10;;;;;;5125370;27;27491;-49
2021/01/10 12:30:08;;;;;;;6.75;4.68;;;5.10;84.70;;;;;;5125805;27;27456;-49
2021/01/10 12:32:53;;;;;;;9.32;5.63;;;5.20;84.60;;;;;;5125443;27;27467;-48
2021/01/10 12:35:38;;;;;;;7.78;5.20;;;5.40;84.80;;;;;;5125418;27;27432;-53
2021/01/10 12:38:23;;;;;;;8.27;5.35;;;5.50;84.60;;;;;;5124917;27;27670;-50
2021/01/10 12:41:08;;;;;;;6.72;5.32;;;5.60;83.90;;;;;;5125345;27;27402;-50
2021/01/10 12:43:53;;;;;;;8.45;5.32;;;5.80;83.50;;;;;;5125293;27;27390;-49
2021/01/10 12:46:37;;;;;;;8.60;5.85;;;5.90;82.60;;;;;;5125017;27;27599;-49
2021/01/10 12:49:22;;;;;;;6.57;5.22;;;6.00;82.30;;;;;;5125352;27;27446;-49
2021/01/10 12:52:06;;;;;;;7.57;5.00;;;6.10;82.20;;;;;;5125267;27;27471;-51
2021/01/10 12:54:50;;;;;;;8.38;4.97;;;6.20;82.00;;;;;;5124594;27;27449;-51
2021/01/10 12:57:35;;;;;;;8.00;5.45;;;6.40;81.90;;;;;;5122123;27;27524;-46
2021/01/10 13:00:20;;;;;;;7.45;5.05;;;6.60;81.30;;;;;;5125199;27;27553;-49
2021/01/10 13:03:05;;;;;;;7.57;4.97;;;6.70;80.20;;;;;;5124625;27;27463;-52
2021/01/10 13:05:50;;;;;;;7.93;5.53;;;6.90;79.90;;;;;;5124844;27;27464;-45
2021/01/10 13:08:35;;;;;;;6.60;4.97;;;7.10;79.70;;;;;;5124141;27;27393;-51
2021/01/10 13:11:20;;;;;;;7.95;5.25;;;7.20;79.00;;;;;;5121223;27;27336;-50
2021/01/10 13:14:06;;;;;;;6.78;4.60;;;7.40;78.50;;;;;;5124963;27;27480;-50
2021/01/10 13:16:51;;;;;;;7.30;5.50;;;7.40;78.50;;;;;;5125233;27;27985;-51
2021/01/10 13:19:41;;;;;;;7.43;5.50;;;7.50;78.10;;;;;;5124846;27;27448;-46
2021/01/10 13:22:29;;;;;;;7.93;5.38;;;7.50;77.80;;;;;;5124258;27;27374;-49
2021/01/10 13:25:14;;;;;;;6.82;5.00;;;7.50;77.30;;;;;;5124969;27;27393;-51
2021/01/10 13:27:58;;;;;;;8.98;5.65;;;7.50;77.30;;;;;;5125049;27;27335;-49
2021/01/10 13:30:43;;;;;;;7.47;5.38;;;7.50;77.60;;;;;;5125029;27;27350;-51
2021/01/10 13:33:27;;;;;;;7.03;5.20;;;7.50;78.20;;;;;;5125060;27;27347;-50
2021/01/10 13:36:20;;;;;;;7.60;5.18;;;7.50;78.20;;;;;;5124655;27;27331;-50
2021/01/10 13:39:05;;;;;;;8.90;4.82;;;7.50;77.80;;;;;;5123720;27;27471;-50
2021/01/10 13:41:50;;;;;;;7.07;5.00;;;7.50;76.90;;;;;;5124887;27;27451;-52
2021/01/10 13:44:35;;;;;;;7.93;5.13;;;7.50;77.30;;;;;;5124805;27;27460;-53
2021/01/10 13:47:19;;;;;;;8.70;4.85;;;7.50;77.30;;;;;;5120479;27;27430;-53
2021/01/10 13:50:04;;;;;;;7.53;5.40;;;7.50;77.40;;;;;;5124504;27;27444;-49
2021/01/10 13:52:49;;;;;;;6.68;5.18;;;7.40;77.30;;;;;;5121089;27;27468;-51
2021/01/10 13:55:33;;;;;;;7.32;4.88;;;7.30;75.80;;;;;;5124442;27;27422;-51
2021/01/10 13:58:18;;;;;;;7.97;5.25;;;7.30;76.30;;;;;;5124392;27;27440;-50
2021/01/10 14:01:02;;;;;;;6.45;4.85;;;7.20;76.20;;;;;;5124371;27;27503;-52
2021/01/10 14:03:47;;;;;;;7.57;5.05;;;7.20;77.00;;;;;;5124227;27;27426;-51
2021/01/10 14:06:32;;;;;;;6.63;4.78;;;7.10;77.50;;;;;;5124329;27;27414;-53
2021/01/10 14:09:17;;;;;;;8.57;5.30;;;7.00;77.30;;;;;;5124247;27;27476;-51
2021/01/10 14:12:03;;;;;;;6.90;5.40;;;6.80;76.50;;;;;;5124511;27;27492;-50
2021/01/10 14:14:47;;;;;;;7.20;5.45;;;6.80;77.20;;;;;;5124140;27;27435;-52
2021/01/10 14:17:31;;;;;;;7.90;5.30;;;6.70;77.50;;;;;;5124003;27;26923;-49
2021/01/10 14:20:16;;;;;;;5.75;4.60;;;6.70;78.70;;;;;;5125777;27;27473;-50
2021/01/10 14:23:00;;;;;;;7.60;5.57;;;6.70;78.60;;;;;;5127828;27;27422;-54